sensor_id;sensor_type;location;lat;lon;timestamp;pressure;altitude;pressure_sealevel;temperature;humidity
23241;BME280;11789;53.482;9.862;2023-08-06T00:00:38;100847.97;;;14.68;100.00
23241;BME280;11789;53.482;9.862;2023-08-06T00:03:04;100849.78;;;14.63;100.00
23241;BME280;11789;53.482;9.862;2023-08-06T00:05:29;100842.06;;;14.59;100.00
23241;BME280;11789;53.482;9.862;2023-08-06T00:07:55;100839.44;;;14.59;100.00
23241;BME280;11789;53.482;9.862;2023-08-06T00:10:20;100848.88;;;14.64;100.00
23241;BME280;11789;53.482;9.862;2023-08-06T00:12:46;100845.31;;;14.71;100.00
23241;BME280;11789;53.482;9.862;2023-08-06T00:15:12;100832.34;;;14.68;100.00
23241;BME280;11789;53.482;9.862;2023-08-06T00:17:37;100825.50;;;14.63;100.00
23241;BME280;11789;53.482;9.862;2023-08-06T00:20:03;100822.16;;;14.56;100.00
23241;BME280;11789;53.482;9.862;2023-08-06T00:22:34;100832.63;;;14.53;100.00
23241;BME280;11789;53.482;9.862;2023-08-06T00:25:01;100824.88;;;14.50;100.00
23241;BME280;11789;53.482;9.862;2023-08-06T00:27:27;100822.28;;;14.47;100.00
23241;BME280;11789;53.482;9.862;2023-08-06T00:29:52;100821.47;;;14.45;100.00
23241;BME280;11789;53.482;9.862;2023-08-06T00:32:18;100812.81;;;14.43;100.00
23241;BME280;11789;53.482;9.862;2023-08-06T00:34:44;100815.41;;;14.43;100.00
23241;BME280;11789;53.482;9.862;2023-08-06T00:37:09;100814.59;;;14.41;100.00
23241;BME280;11789;53.482;9.862;2023-08-06T00:39:34;100820.59;;;14.44;100.00
23241;BME280;11789;53.482;9.862;2023-08-06T00:42:00;100815.38;;;14.46;100.00
23241;BME280;11789;53.482;9.862;2023-08-06T00:44:25;100819.56;;;14.54;100.00
23241;BME280;11789;53.482;9.862;2023-08-06T00:46:51;100818.62;;;14.59;100.00
23241;BME280;11789;53.482;9.862;2023-08-06T00:49:16;100811.59;;;14.65;100.00
23241;BME280;11789;53.482;9.862;2023-08-06T00:51:42;100814.22;;;14.65;100.00
23241;BME280;11789;53.482;9.862;2023-08-06T00:54:08;100817.63;;;14.67;100.00
23241;BME280;11789;53.482;9.862;2023-08-06T00:56:41;100810.72;;;14.66;100.00
23241;BME280;11789;53.482;9.862;2023-08-06T00:59:07;100807.19;;;14.69;100.00
23241;BME280;11789;53.482;9.862;2023-08-06T01:01:34;100802.81;;;14.69;100.00
23241;BME280;11789;53.482;9.862;2023-08-06T01:04:00;100795.03;;;14.69;100.00
23241;BME280;11789;53.482;9.862;2023-08-06T01:06:39;100790.72;;;14.68;100.00
23241;BME280;11789;53.482;9.862;2023-08-06T01:09:27;100788.16;;;14.67;100.00
23241;BME280;11789;53.482;9.862;2023-08-06T01:12:06;100784.72;;;14.63;100.00
23241;BME280;11789;53.482;9.862;2023-08-06T01:15:13;100785.63;;;14.62;100.00
23241;BME280;11789;53.482;9.862;2023-08-06T01:17:40;100782.16;;;14.62;100.00
23241;BME280;11789;53.482;9.862;2023-08-06T01:20:09;100777.88;;;14.59;100.00
23241;BME280;11789;53.482;9.862;2023-08-06T01:22:34;100766.69;;;14.56;100.00
23241;BME280;11789;53.482;9.862;2023-08-06T01:25:00;100774.53;;;14.52;100.00
23241;BME280;11789;53.482;9.862;2023-08-06T01:27:33;100765.91;;;14.50;100.00
23241;BME280;11789;53.482;9.862;2023-08-06T01:30:26;100759.88;;;14.47;100.00
23241;BME280;11789;53.482;9.862;2023-08-06T01:32:57;100768.56;;;14.46;100.00
23241;BME280;11789;53.482;9.862;2023-08-06T01:35:25;100766.84;;;14.45;100.00
23241;BME280;11789;53.482;9.862;2023-08-06T01:37:52;100759.94;;;14.42;100.00
23241;BME280;11789;53.482;9.862;2023-08-06T01:40:18;100753.88;;;14.42;100.00
23241;BME280;11789;53.482;9.862;2023-08-06T01:42:43;100758.25;;;14.41;100.00
23241;BME280;11789;53.482;9.862;2023-08-06T01:45:09;100749.56;;;14.41;100.00
23241;BME280;11789;53.482;9.862;2023-08-06T01:47:36;100747.84;;;14.41;100.00
23241;BME280;11789;53.482;9.862;2023-08-06T01:50:01;100754.81;;;14.38;100.00
23241;BME280;11789;53.482;9.862;2023-08-06T01:52:27;100751.34;;;14.39;100.00
23241;BME280;11789;53.482;9.862;2023-08-06T01:54:56;100749.59;;;14.39;100.00
23241;BME280;11789;53.482;9.862;2023-08-06T01:57:22;100740.94;;;14.39;100.00
23241;BME280;11789;53.482;9.862;2023-08-06T01:59:47;100740.94;;;14.39;100.00
23241;BME280;11789;53.482;9.862;2023-08-06T02:02:13;100734.88;;;14.38;100.00
23241;BME280;11789;53.482;9.862;2023-08-06T02:04:38;100732.31;;;14.37;100.00
23241;BME280;11789;53.482;9.862;2023-08-06T02:07:04;100726.25;;;14.36;100.00
23241;BME280;11789;53.482;9.862;2023-08-06T02:09:29;100729.66;;;14.38;100.00
23241;BME280;11789;53.482;9.862;2023-08-06T02:11:55;100721.00;;;14.38;100.00
23241;BME280;11789;53.482;9.862;2023-08-06T02:14:20;100718.41;;;14.38;100.00
23241;BME280;11789;53.482;9.862;2023-08-06T02:16:45;100723.62;;;14.38;100.00
23241;BME280;11789;53.482;9.862;2023-08-06T02:19:11;100718.50;;;14.35;100.00
23241;BME280;11789;53.482;9.862;2023-08-06T02:21:36;100721.94;;;14.35;100.00
23241;BME280;11789;53.482;9.862;2023-08-06T02:24:02;100722.78;;;14.36;100.00
23241;BME280;11789;53.482;9.862;2023-08-06T02:26:28;100706.38;;;14.32;100.00
23241;BME280;11789;53.482;9.862;2023-08-06T02:28:53;100717.63;;;14.33;100.00
23241;BME280;11789;53.482;9.862;2023-08-06T02:31:18;100708.94;;;14.34;100.00
23241;BME280;11789;53.482;9.862;2023-08-06T02:33:44;100711.59;;;14.32;100.00
23241;BME280;11789;53.482;9.862;2023-08-06T02:36:09;100702.00;;;14.34;100.00
23241;BME280;11789;53.482;9.862;2023-08-06T02:38:35;100703.66;;;14.40;100.00
23241;BME280;11789;53.482;9.862;2023-08-06T02:41:03;100702.63;;;14.47;100.00
23241;BME280;11789;53.482;9.862;2023-08-06T02:43:29;100700.03;;;14.50;100.00
23241;BME280;11789;53.482;9.862;2023-08-06T02:45:59;100700.03;;;14.50;100.00
23241;BME280;11789;53.482;9.862;2023-08-06T02:48:24;100698.31;;;14.47;100.00
23241;BME280;11789;53.482;9.862;2023-08-06T02:50:50;100691.37;;;14.48;100.00
23241;BME280;11789;53.482;9.862;2023-08-06T02:53:15;100692.22;;;14.47;100.00
23241;BME280;11789;53.482;9.862;2023-08-06T02:55:46;100692.22;;;14.47;100.00
23241;BME280;11789;53.482;9.862;2023-08-06T02:58:15;100683.56;;;14.46;100.00
23241;BME280;11789;53.482;9.862;2023-08-06T03:00:41;100680.97;;;14.48;100.00
23241;BME280;11789;53.482;9.862;2023-08-06T03:03:07;100685.38;;;14.43;100.00
23241;BME280;11789;53.482;9.862;2023-08-06T03:05:32;100685.44;;;14.40;100.00
23241;BME280;11789;53.482;9.862;2023-08-06T03:07:58;100682.84;;;14.38;100.00
23241;BME280;11789;53.482;9.862;2023-08-06T03:10:23;100678.50;;;14.39;100.00
23241;BME280;11789;53.482;9.862;2023-08-06T03:12:49;100686.31;;;14.40;100.00
23241;BME280;11789;53.482;9.862;2023-08-06T03:15:17;100683.69;;;14.40;100.00
23241;BME280;11789;53.482;9.862;2023-08-06T03:17:43;100689.75;;;14.41;100.00
23241;BME280;11789;53.482;9.862;2023-08-06T03:20:10;100689.72;;;14.42;100.00
23241;BME280;11789;53.482;9.862;2023-08-06T03:22:35;100681.09;;;14.40;100.00
23241;BME280;11789;53.482;9.862;2023-08-06T03:25:01;100680.22;;;14.41;100.00
23241;BME280;11789;53.482;9.862;2023-08-06T03:27:27;100685.38;;;14.43;100.00
23241;BME280;11789;53.482;9.862;2023-08-06T03:29:52;100679.28;;;14.44;100.00
23241;BME280;11789;53.482;9.862;2023-08-06T03:32:18;100667.13;;;14.46;100.00
23241;BME280;11789;53.482;9.862;2023-08-06T03:34:44;100669.66;;;14.49;100.00
23241;BME280;11789;53.482;9.862;2023-08-06T03:39:50;100663.41;;;14.59;100.00
23241;BME280;11789;53.482;9.862;2023-08-06T03:42:16;100672.84;;;14.63;100.00
23241;BME280;11789;53.482;9.862;2023-08-06T03:44:45;100663.28;;;14.65;100.00
23241;BME280;11789;53.482;9.862;2023-08-06T03:47:10;100667.53;;;14.69;100.00
23241;BME280;11789;53.482;9.862;2023-08-06T03:49:39;100667.50;;;14.71;100.00
23241;BME280;11789;53.482;9.862;2023-08-06T03:52:05;100663.16;;;14.71;100.00
23241;BME280;11789;53.482;9.862;2023-08-06T03:54:31;100660.56;;;14.71;100.00
23241;BME280;11789;53.482;9.862;2023-08-06T03:56:56;100660.59;;;14.68;100.00
23241;BME280;11789;53.482;9.862;2023-08-06T03:59:21;100652.88;;;14.65;100.00
23241;BME280;11789;53.482;9.862;2023-08-06T04:01:47;100655.53;;;14.62;100.00
23241;BME280;11789;53.482;9.862;2023-08-06T04:04:12;100643.44;;;14.61;100.00
23241;BME280;11789;53.482;9.862;2023-08-06T04:06:38;100647.78;;;14.59;100.00
23241;BME280;11789;53.482;9.862;2023-08-06T04:09:03;100641.72;;;14.59;100.00
23241;BME280;11789;53.482;9.862;2023-08-06T04:11:29;100643.56;;;14.55;100.00
23241;BME280;11789;53.482;9.862;2023-08-06T04:13:54;100640.16;;;14.51;100.00
23241;BME280;11789;53.482;9.862;2023-08-06T04:16:21;100634.16;;;14.48;100.00
23241;BME280;11789;53.482;9.862;2023-08-06T04:18:46;100636.75;;;14.46;100.00
23241;BME280;11789;53.482;9.862;2023-08-06T04:21:12;100635.00;;;14.48;100.00
23241;BME280;11789;53.482;9.862;2023-08-06T04:23:38;100635.00;;;14.50;100.00
23241;BME280;11789;53.482;9.862;2023-08-06T04:26:03;100641.94;;;14.48;100.00
23241;BME280;11789;53.482;9.862;2023-08-06T04:28:29;100635.06;;;14.45;100.00
23241;BME280;11789;53.482;9.862;2023-08-06T04:30:55;100642.00;;;14.43;100.00
23241;BME280;11789;53.482;9.862;2023-08-06T04:33:21;100645.50;;;14.42;100.00
23241;BME280;11789;53.482;9.862;2023-08-06T04:35:46;100653.31;;;14.42;100.00
23241;BME280;11789;53.482;9.862;2023-08-06T04:38:12;100642.06;;;14.42;100.00
23241;BME280;11789;53.482;9.862;2023-08-06T04:40:37;100640.34;;;14.41;100.00
23241;BME280;11789;53.482;9.862;2023-08-06T04:43:03;100646.41;;;14.41;100.00
23241;BME280;11789;53.482;9.862;2023-08-06T04:45:28;100647.25;;;14.42;100.00
23241;BME280;11789;53.482;9.862;2023-08-06T04:47:54;100652.44;;;14.42;100.00
23241;BME280;11789;53.482;9.862;2023-08-06T04:50:20;100650.72;;;14.42;100.00
23241;BME280;11789;53.482;9.862;2023-08-06T04:52:45;100650.66;;;14.44;100.00
23241;BME280;11789;53.482;9.862;2023-08-06T04:55:11;100650.66;;;14.45;100.00
23241;BME280;11789;53.482;9.862;2023-08-06T04:57:36;100661.06;;;14.45;100.00
23241;BME280;11789;53.482;9.862;2023-08-06T05:00:02;100655.81;;;14.47;100.00
23241;BME280;11789;53.482;9.862;2023-08-06T05:02:29;100654.97;;;14.48;100.00
23241;BME280;11789;53.482;9.862;2023-08-06T05:04:57;100660.16;;;14.48;100.00
23241;BME280;11789;53.482;9.862;2023-08-06T05:07:25;100655.81;;;14.47;100.00
23241;BME280;11789;53.482;9.862;2023-08-06T05:09:51;100660.16;;;14.46;100.00
23241;BME280;11789;53.482;9.862;2023-08-06T05:12:16;100655.88;;;14.44;100.00
23241;BME280;11789;53.482;9.862;2023-08-06T05:14:42;100650.75;;;14.41;100.00
23241;BME280;11789;53.482;9.862;2023-08-06T05:17:07;100649.84;;;14.42;100.00
23241;BME280;11789;53.482;9.862;2023-08-06T05:19:33;100652.41;;;14.43;100.00
23241;BME280;11789;53.482;9.862;2023-08-06T05:21:58;100646.31;;;14.46;100.00
23241;BME280;11789;53.482;9.862;2023-08-06T05:24:23;100646.25;;;14.49;100.00
23241;BME280;11789;53.482;9.862;2023-08-06T05:26:49;100654.09;;;14.47;100.00
23241;BME280;11789;53.482;9.862;2023-08-06T05:29:16;100659.25;;;14.50;100.00
23241;BME280;11789;53.482;9.862;2023-08-06T05:31:42;100654.81;;;14.56;100.00
23241;BME280;11789;53.482;9.862;2023-08-06T05:34:07;100653.91;;;14.57;100.00
23241;BME280;11789;53.482;9.862;2023-08-06T05:36:33;100652.19;;;14.57;100.00
23241;BME280;11789;53.482;9.862;2023-08-06T05:38:58;100655.66;;;14.56;100.00
23241;BME280;11789;53.482;9.862;2023-08-06T05:41:24;100651.25;;;14.60;100.00
23241;BME280;11789;53.482;9.862;2023-08-06T05:43:49;100652.91;;;14.64;100.00
23241;BME280;11789;53.482;9.862;2023-08-06T05:46:15;100651.00;;;14.72;100.00
23241;BME280;11789;53.482;9.862;2023-08-06T05:48:40;100649.25;;;14.72;100.00
23241;BME280;11789;53.482;9.862;2023-08-06T05:51:05;100645.72;;;14.75;100.00
23241;BME280;11789;53.482;9.862;2023-08-06T05:53:31;100640.50;;;14.75;100.00
23241;BME280;11789;53.482;9.862;2023-08-06T05:55:56;100635.31;;;14.75;100.00
23241;BME280;11789;53.482;9.862;2023-08-06T05:58:22;100625.69;;;14.78;100.00
23241;BME280;11789;53.482;9.862;2023-08-06T06:00:49;100625.62;;;14.82;100.00
23241;BME280;11789;53.482;9.862;2023-08-06T06:03:14;100628.28;;;14.78;100.00
23241;BME280;11789;53.482;9.862;2023-08-06T06:05:40;100635.25;;;14.78;100.00
23241;BME280;11789;53.482;9.862;2023-08-06T06:08:05;100637.78;;;14.81;100.00
23241;BME280;11789;53.482;9.862;2023-08-06T06:10:31;100631.66;;;14.84;100.00
23241;BME280;11789;53.482;9.862;2023-08-06T06:12:56;100632.50;;;14.86;100.00
23241;BME280;11789;53.482;9.862;2023-08-06T06:15:22;100640.31;;;14.86;100.00
23241;BME280;11789;53.482;9.862;2023-08-06T06:17:47;100634.25;;;14.84;100.00
23241;BME280;11789;53.482;9.862;2023-08-06T06:20:13;100635.22;;;14.79;100.00
23241;BME280;11789;53.482;9.862;2023-08-06T06:22:38;100627.44;;;14.78;100.00
23241;BME280;11789;53.482;9.862;2023-08-06T06:25:04;100635.31;;;14.75;100.00
23241;BME280;11789;53.482;9.862;2023-08-06T06:27:30;100635.28;;;14.76;100.00
23241;BME280;11789;53.482;9.862;2023-08-06T06:29:55;100634.44;;;14.74;100.00
23241;BME280;11789;53.482;9.862;2023-08-06T06:32:21;100641.41;;;14.75;100.00
23241;BME280;11789;53.482;9.862;2023-08-06T06:34:47;100629.19;;;14.77;100.00
23241;BME280;11789;53.482;9.862;2023-08-06T06:37:13;100616.97;;;14.81;100.00
23241;BME280;11789;53.482;9.862;2023-08-06T06:39:38;100620.47;;;14.78;100.00
23241;BME280;11789;53.482;9.862;2023-08-06T06:42:04;100618.62;;;14.84;100.00
23241;BME280;11789;53.482;9.862;2023-08-06T06:44:30;100617.88;;;14.78;100.00
23241;BME280;11789;53.482;9.862;2023-08-06T06:46:55;100620.53;;;14.77;100.00
23241;BME280;11789;53.482;9.862;2023-08-06T06:49:20;100621.38;;;14.77;100.00
23241;BME280;11789;53.482;9.862;2023-08-06T06:51:46;100609.28;;;14.76;100.00
23241;BME280;11789;53.482;9.862;2023-08-06T06:54:11;100620.44;;;14.82;100.00
23241;BME280;11789;53.482;9.862;2023-08-06T06:56:37;100624.69;;;14.84;100.00
23241;BME280;11789;53.482;9.862;2023-08-06T06:59:02;100621.16;;;14.88;100.00
23241;BME280;11789;53.482;9.862;2023-08-06T07:01:28;100608.97;;;14.90;100.00
23241;BME280;11789;53.482;9.862;2023-08-06T07:03:53;100620.16;;;14.94;100.00
23241;BME280;11789;53.482;9.862;2023-08-06T07:06:18;100625.28;;;14.97;100.00
23241;BME280;11789;53.482;9.862;2023-08-06T07:08:45;100620.84;;;15.02;100.00
23241;BME280;11789;53.482;9.862;2023-08-06T07:11:10;100624.25;;;15.05;100.00
23241;BME280;11789;53.482;9.862;2023-08-06T07:13:36;100621.59;;;15.07;100.00
23241;BME280;11789;53.482;9.862;2023-08-06T07:16:02;100620.75;;;15.07;100.00
23241;BME280;11789;53.482;9.862;2023-08-06T07:18:28;100625.03;;;15.08;100.00
23241;BME280;11789;53.482;9.862;2023-08-06T07:20:54;100626.72;;;15.10;100.00
23241;BME280;11789;53.482;9.862;2023-08-06T07:23:22;100623.16;;;15.14;100.00
23241;BME280;11789;53.482;9.862;2023-08-06T07:25:47;100623.09;;;15.17;100.00
23241;BME280;11789;53.482;9.862;2023-08-06T07:28:14;100623.87;;;15.21;100.00
23241;BME280;11789;53.482;9.862;2023-08-06T07:30:40;100615.16;;;15.22;100.00
23241;BME280;11789;53.482;9.862;2023-08-06T07:33:05;100609.84;;;15.26;100.00
23241;BME280;11789;53.482;9.862;2023-08-06T07:35:31;100619.28;;;15.30;100.00
23241;BME280;11789;53.482;9.862;2023-08-06T07:37:57;100616.66;;;15.32;100.00
23241;BME280;11789;53.482;9.862;2023-08-06T07:40:22;100619.16;;;15.37;100.00
23241;BME280;11789;53.482;9.862;2023-08-06T07:42:48;100622.69;;;15.34;100.00
23241;BME280;11789;53.482;9.862;2023-08-06T07:45:13;100624.44;;;15.34;100.00
23241;BME280;11789;53.482;9.862;2023-08-06T07:47:39;100616.56;;;15.35;100.00
23241;BME280;11789;53.482;9.862;2023-08-06T07:50:04;100629.63;;;15.34;100.00
23241;BME280;11789;53.482;9.862;2023-08-06T07:52:30;100626.94;;;15.38;100.00
23241;BME280;11789;53.482;9.862;2023-08-06T07:54:55;100628.53;;;15.44;100.00
23241;BME280;11789;53.482;9.862;2023-08-06T07:57:21;100624.13;;;15.46;100.00
23241;BME280;11789;53.482;9.862;2023-08-06T07:59:46;100627.59;;;15.46;100.00
23241;BME280;11789;53.482;9.862;2023-08-06T08:02:12;100619.63;;;15.52;100.00
23241;BME280;11789;53.482;9.862;2023-08-06T08:04:37;100618.66;;;15.56;100.00
23241;BME280;11789;53.482;9.862;2023-08-06T08:07:03;100619.41;;;15.62;100.00
23241;BME280;11789;53.482;9.862;2023-08-06T08:09:28;100616.72;;;15.66;100.00
23241;BME280;11789;53.482;9.862;2023-08-06T08:11:54;100615.72;;;15.70;100.00
23241;BME280;11789;53.482;9.862;2023-08-06T08:14:20;100616.63;;;15.69;100.00
23241;BME280;11789;53.482;9.862;2023-08-06T08:16:45;100622.69;;;15.70;100.00
23241;BME280;11789;53.482;9.862;2023-08-06T08:19:10;100616.63;;;15.69;100.00
23241;BME280;11789;53.482;9.862;2023-08-06T08:21:36;100615.69;;;15.72;100.00
23241;BME280;11789;53.482;9.862;2023-08-06T08:24:04;100611.25;;;15.75;100.00
23241;BME280;11789;53.482;9.862;2023-08-06T08:26:29;100615.53;;;15.78;100.00
23241;BME280;11789;53.482;9.862;2023-08-06T08:28:56;100617.16;;;15.82;100.00
23241;BME280;11789;53.482;9.862;2023-08-06T08:31:21;100610.16;;;15.84;100.00
23241;BME280;11789;53.482;9.862;2023-08-06T08:33:47;100608.31;;;15.88;100.00
23241;BME280;11789;53.482;9.862;2023-08-06T08:36:12;100614.28;;;15.91;100.00
23241;BME280;11789;53.482;9.862;2023-08-06T08:38:38;100615.12;;;15.93;100.00
23241;BME280;11789;53.482;9.862;2023-08-06T08:41:03;100605.47;;;15.97;100.00
23241;BME280;11789;53.482;9.862;2023-08-06T08:43:29;100615.81;;;16.00;100.00
23241;BME280;11789;53.482;9.862;2023-08-06T08:45:57;100607.09;;;16.01;100.00
23241;BME280;11789;53.482;9.862;2023-08-06T08:48:24;100603.59;;;16.02;100.00
23241;BME280;11789;53.482;9.862;2023-08-06T08:50:55;100603.50;;;16.05;100.00
23241;BME280;11789;53.482;9.862;2023-08-06T08:53:21;100596.47;;;16.08;100.00
23241;BME280;11789;53.482;9.862;2023-08-06T08:55:48;100598.94;;;16.13;100.00
23241;BME280;11789;53.482;9.862;2023-08-06T08:58:15;100607.63;;;16.14;100.00
23241;BME280;11789;53.482;9.862;2023-08-06T09:00:46;100596.34;;;16.13;100.00
23241;BME280;11789;53.482;9.862;2023-08-06T09:03:11;100592.03;;;16.12;100.00
23241;BME280;11789;53.482;9.862;2023-08-06T09:05:43;100595.25;;;16.20;100.00
23241;BME280;11789;53.482;9.862;2023-08-06T09:08:11;100589.00;;;16.26;100.00
23241;BME280;11789;53.482;9.862;2023-08-06T09:10:41;100590.56;;;16.31;100.00
23241;BME280;11789;53.482;9.862;2023-08-06T09:13:07;100600.84;;;16.38;100.00
23241;BME280;11789;53.482;9.862;2023-08-06T09:15:34;100592.87;;;16.42;100.00
23241;BME280;11789;53.482;9.862;2023-08-06T09:17:59;100591.94;;;16.45;100.00
23241;BME280;11789;53.482;9.862;2023-08-06T09:20:25;100595.41;;;16.45;100.00
23241;BME280;11789;53.482;9.862;2023-08-06T09:22:53;100597.25;;;16.42;100.00
23241;BME280;11789;53.482;9.862;2023-08-06T09:25:23;100593.88;;;16.38;100.00
23241;BME280;11789;53.482;9.862;2023-08-06T09:27:51;100594.69;;;16.40;100.00
23241;BME280;11789;53.482;9.862;2023-08-06T09:30:32;100599.72;;;16.46;100.00
23241;BME280;11789;53.482;9.862;2023-08-06T09:32:58;100592.72;;;16.48;100.00
23241;BME280;11789;53.482;9.862;2023-08-06T09:35:24;100595.28;;;16.50;100.00
23241;BME280;11789;53.482;9.862;2023-08-06T09:37:49;100596.13;;;16.50;100.00
23241;BME280;11789;53.482;9.862;2023-08-06T09:40:33;100592.53;;;16.54;100.00
23241;BME280;11789;53.482;9.862;2023-08-06T09:42:59;100593.31;;;16.58;100.00
23241;BME280;11789;53.482;9.862;2023-08-06T09:45:30;100595.06;;;16.57;100.00
23241;BME280;11789;53.482;9.862;2023-08-06T09:47:58;100594.16;;;16.58;100.00
23241;BME280;11789;53.482;9.862;2023-08-06T09:50:31;100594.03;;;16.61;100.00
23241;BME280;11789;53.482;9.862;2023-08-06T09:52:57;100594.00;;;16.63;100.00
23241;BME280;11789;53.482;9.862;2023-08-06T09:55:23;100596.50;;;16.66;100.00
23241;BME280;11789;53.482;9.862;2023-08-06T09:57:50;100594.75;;;16.67;100.00
23241;BME280;11789;53.482;9.862;2023-08-06T10:00:16;100593.88;;;16.68;100.00
23241;BME280;11789;53.482;9.862;2023-08-06T10:02:42;100595.59;;;16.69;100.00
23241;BME280;11789;53.482;9.862;2023-08-06T10:05:09;100592.03;;;16.71;100.00
23241;BME280;11789;53.482;9.862;2023-08-06T10:07:35;100583.16;;;16.77;100.00
23241;BME280;11789;53.482;9.862;2023-08-06T10:10:02;100582.31;;;16.76;100.00
23241;BME280;11789;53.482;9.862;2023-08-06T10:12:33;100587.50;;;16.78;100.00
23241;BME280;11789;53.482;9.862;2023-08-06T10:15:02;100583.09;;;16.80;100.00
23241;BME280;11789;53.482;9.862;2023-08-06T10:17:31;100583.94;;;16.80;100.00
23241;BME280;11789;53.482;9.862;2023-08-06T10:19:59;100582.22;;;16.79;100.00
23241;BME280;11789;53.482;9.862;2023-08-06T10:22:24;100582.31;;;16.76;100.00
23241;BME280;11789;53.482;9.862;2023-08-06T10:24:54;100580.53;;;16.78;100.00
23241;BME280;11789;53.482;9.862;2023-08-06T10:29:47;100577.81;;;16.81;100.00
23241;BME280;11789;53.482;9.862;2023-08-06T10:32:12;100576.81;;;16.85;100.00
23241;BME280;11789;53.482;9.862;2023-08-06T10:34:57;100582.84;;;16.87;100.00
23241;BME280;11789;53.482;9.862;2023-08-06T10:37:24;100576.72;;;16.89;100.00
23241;BME280;11789;53.482;9.862;2023-08-06T10:39:51;100570.75;;;16.85;100.00
23241;BME280;11789;53.482;9.862;2023-08-06T10:42:27;100577.72;;;16.84;100.00
23241;BME280;11789;53.482;9.862;2023-08-06T10:45:16;100575.91;;;16.86;100.00
23241;BME280;11789;53.482;9.862;2023-08-06T10:47:42;100569.69;;;16.91;100.00
23241;BME280;11789;53.482;9.862;2023-08-06T10:50:12;100566.94;;;16.95;100.00
23241;BME280;11789;53.482;9.862;2023-08-06T10:52:39;100559.25;;;16.91;100.00
23241;BME280;11789;53.482;9.862;2023-08-06T10:55:05;100567.88;;;16.93;100.00
23241;BME280;11789;53.482;9.862;2023-08-06T10:57:31;100566.16;;;16.93;100.00
23241;BME280;11789;53.482;9.862;2023-08-06T10:59:56;100566.09;;;16.95;100.00
23241;BME280;11789;53.482;9.862;2023-08-06T11:02:22;100561.72;;;16.95;100.00
23241;BME280;11789;53.482;9.862;2023-08-06T11:04:48;100564.25;;;16.97;100.00
23241;BME280;11789;53.482;9.862;2023-08-06T11:07:14;100558.13;;;16.98;100.00
23241;BME280;11789;53.482;9.862;2023-08-06T11:09:39;100560.66;;;17.01;100.00
23241;BME280;11789;53.482;9.862;2023-08-06T11:12:11;100562.56;;;16.96;100.00
23241;BME280;11789;53.482;9.862;2023-08-06T11:14:37;100563.34;;;16.98;100.00
23241;BME280;11789;53.482;9.862;2023-08-06T11:17:05;100559.03;;;16.97;100.00
23241;BME280;11789;53.482;9.862;2023-08-06T11:19:31;100564.25;;;16.97;100.00
23241;BME280;11789;53.482;9.862;2023-08-06T11:21:58;100555.78;;;16.90;100.00
23241;BME280;11789;53.482;9.862;2023-08-06T11:24:24;100554.03;;;16.91;100.00
23241;BME280;11789;53.482;9.862;2023-08-06T11:26:50;100547.94;;;16.90;100.00
23241;BME280;11789;53.482;9.862;2023-08-06T11:29:16;100553.97;;;16.92;100.00
23241;BME280;11789;53.482;9.862;2023-08-06T11:31:41;100551.22;;;16.97;100.00
23241;BME280;11789;53.482;9.862;2023-08-06T11:34:06;100548.41;;;17.03;100.00
23241;BME280;11789;53.482;9.862;2023-08-06T11:36:40;100547.38;;;17.08;100.00
23241;BME280;11789;53.482;9.862;2023-08-06T11:39:06;100553.28;;;17.14;100.00
23241;BME280;11789;53.482;9.862;2023-08-06T11:41:32;100546.41;;;17.11;100.00
23241;BME280;11789;53.482;9.862;2023-08-06T11:43:59;100545.50;;;17.12;100.00
23241;BME280;11789;53.482;9.862;2023-08-06T11:46:24;100548.22;;;17.09;100.00
23241;BME280;11789;53.482;9.862;2023-08-06T11:48:55;100551.69;;;17.09;100.00
23241;BME280;11789;53.482;9.862;2023-08-06T11:51:27;100552.37;;;17.15;100.00
23241;BME280;11789;53.482;9.862;2023-08-06T11:53:58;100552.31;;;17.16;100.00
23241;BME280;11789;53.482;9.862;2023-08-06T11:56:25;100551.53;;;17.14;100.00
23241;BME280;11789;53.482;9.862;2023-08-06T11:58:51;100556.00;;;17.10;100.00
23241;BME280;11789;53.482;9.862;2023-08-06T12:01:18;100543.88;;;17.08;100.00
23241;BME280;11789;53.482;9.862;2023-08-06T12:03:43;100542.16;;;17.07;100.00
23241;BME280;11789;53.482;9.862;2023-08-06T12:06:09;100536.94;;;17.07;100.00
23241;BME280;11789;53.482;9.862;2023-08-06T12:08:34;100533.41;;;17.09;100.00
23241;BME280;11789;53.482;9.862;2023-08-06T12:11:00;100536.84;;;17.10;100.00
23241;BME280;11789;53.482;9.862;2023-08-06T12:13:25;100532.56;;;17.07;100.00
23241;BME280;11789;53.482;9.862;2023-08-06T12:15:51;100535.34;;;17.03;100.00
23241;BME280;11789;53.482;9.862;2023-08-06T12:18:19;100537.16;;;17.01;100.00
23241;BME280;11789;53.482;9.862;2023-08-06T12:20:44;100534.47;;;17.04;100.00
23241;BME280;11789;53.482;9.862;2023-08-06T12:23:10;100530.22;;;17.00;100.00
23241;BME280;11789;53.482;9.862;2023-08-06T12:25:35;100531.16;;;16.99;100.00
23241;BME280;11789;53.482;9.862;2023-08-06T12:28:01;100528.53;;;16.99;100.00
23241;BME280;11789;53.482;9.862;2023-08-06T12:30:29;100529.41;;;16.98;100.00
23241;BME280;11789;53.482;9.862;2023-08-06T12:32:54;100530.38;;;16.95;100.00
23241;BME280;11789;53.482;9.862;2023-08-06T12:35:20;100525.16;;;16.95;100.00
23241;BME280;11789;53.482;9.862;2023-08-06T12:37:46;100524.25;;;16.96;100.00
23241;BME280;11789;53.482;9.862;2023-08-06T12:40:11;100517.25;;;16.97;100.00
23241;BME280;11789;53.482;9.862;2023-08-06T12:42:37;100518.87;;;17.01;100.00